sensor_id;sensor_type;location;lat;lon;timestamp;pressure;altitude;pressure_sealevel;temperature;humidity
5883;BME280;2967;51.488;6.618;2023-04-07T00:03:43;101087.84;;;9.74;100.00
5883;BME280;2967;51.488;6.618;2023-04-07T00:08:46;101090.41;;;9.75;100.00
5883;BME280;2967;51.488;6.618;2023-04-07T00:13:50;101041.69;;;9.50;100.00
5883;BME280;2967;51.488;6.618;2023-04-07T00:18:53;101091.59;;;9.85;100.00
5883;BME280;2967;51.488;6.618;2023-04-07T00:23:56;101093.13;;;9.74;100.00
5883;BME280;2967;51.488;6.618;2023-04-07T00:29:00;101095.75;;;9.74;100.00
5883;BME280;2967;51.488;6.618;2023-04-07T00:34:03;101081.28;;;9.65;100.00
5883;BME280;2967;51.488;6.618;2023-04-07T00:39:06;101082.47;;;9.75;100.00
5883;BME280;2967;51.488;6.618;2023-04-07T00:44:10;101078.72;;;9.79;100.00
5883;BME280;2967;51.488;6.618;2023-04-07T00:49:14;101086.97;;;9.89;100.00
5883;BME280;2967;51.488;6.618;2023-04-07T00:54:18;101085.66;;;9.96;100.00
5883;BME280;2967;51.488;6.618;2023-04-07T00:59:22;101085.66;;;9.96;100.00
5883;BME280;2967;51.488;6.618;2023-04-07T01:04:28;101080.13;;;10.00;100.00
5883;BME280;2967;51.488;6.618;2023-04-07T01:09:36;101073.13;;;9.99;100.00
5883;BME280;2967;51.488;6.618;2023-04-07T01:14:49;101079.81;;;10.06;100.00
5883;BME280;2967;51.488;6.618;2023-04-07T01:20:16;101073.81;;;10.18;100.00
5883;BME280;2967;51.488;6.618;2023-04-07T01:25:37;101079.00;;;10.20;100.00
5883;BME280;2967;51.488;6.618;2023-04-07T01:30:46;101073.09;;;10.30;100.00
5883;BME280;2967;51.488;6.618;2023-04-07T01:35:49;101084.94;;;10.39;100.00
5883;BME280;2967;51.488;6.618;2023-04-07T01:40:54;101084.13;;;10.37;100.00
5883;BME280;2967;51.488;6.618;2023-04-07T01:46:00;101086.63;;;10.40;100.00
5883;BME280;2967;51.488;6.618;2023-04-07T01:51:04;101085.22;;;10.48;100.00
5883;BME280;2967;51.488;6.618;2023-04-07T01:56:08;101087.03;;;10.48;100.00
5883;BME280;2967;51.488;6.618;2023-04-07T02:01:13;101089.66;;;10.48;100.00
5883;BME280;2967;51.488;6.618;2023-04-07T02:06:19;101083.59;;;10.45;100.00
5883;BME280;2967;51.488;6.618;2023-04-07T02:11:25;101084.28;;;10.49;100.00
5883;BME280;2967;51.488;6.618;2023-04-07T02:16:34;101086.34;;;10.44;100.00
5883;BME280;2967;51.488;6.618;2023-04-07T02:21:39;101092.47;;;10.44;100.00
5883;BME280;2967;51.488;6.618;2023-04-07T02:26:42;101089.75;;;10.46;100.00
5883;BME280;2967;51.488;6.618;2023-04-07T02:31:46;101094.97;;;10.48;100.00
5883;BME280;2967;51.488;6.618;2023-04-07T02:36:49;101092.31;;;10.48;100.00
5883;BME280;2967;51.488;6.618;2023-04-07T02:41:51;101093.91;;;10.50;100.00
5883;BME280;2967;51.488;6.618;2023-04-07T02:46:55;101093.22;;;10.46;100.00
5883;BME280;2967;51.488;6.618;2023-04-07T02:51:58;101101.34;;;10.43;100.00
5883;BME280;2967;51.488;6.618;2023-04-07T02:57:01;101105.69;;;10.44;100.00
5883;BME280;2967;51.488;6.618;2023-04-07T03:02:05;101107.84;;;10.38;100.00
5883;BME280;2967;51.488;6.618;2023-04-07T03:07:10;101111.75;;;10.46;100.00
5883;BME280;2967;51.488;6.618;2023-04-07T03:12:14;101108.72;;;10.39;100.00
5883;BME280;2967;51.488;6.618;2023-04-07T03:17:18;101110.22;;;10.43;100.00
5883;BME280;2967;51.488;6.618;2023-04-07T03:22:21;101098.97;;;10.39;100.00
5883;BME280;2967;51.488;6.618;2023-04-07T03:27:26;101101.13;;;10.33;100.00
5883;BME280;2967;51.488;6.618;2023-04-07T03:32:30;101101.91;;;10.35;100.00
5883;BME280;2967;51.488;6.618;2023-04-07T03:37:33;101110.97;;;10.31;100.00
5883;BME280;2967;51.488;6.618;2023-04-07T03:42:37;101114.69;;;10.27;100.00
5883;BME280;2967;51.488;6.618;2023-04-07T03:47:43;101104.13;;;10.27;100.00
5883;BME280;2967;51.488;6.618;2023-04-07T03:52:46;101119.72;;;10.31;100.00
5883;BME280;2967;51.488;6.618;2023-04-07T03:57:57;101120.94;;;10.26;100.00
5883;BME280;2967;51.488;6.618;2023-04-07T04:03:05;101122.94;;;10.22;100.00
5883;BME280;2967;51.488;6.618;2023-04-07T04:08:12;101136.91;;;10.24;100.00
5883;BME280;2967;51.488;6.618;2023-04-07T04:13:16;101134.06;;;10.27;100.00
5883;BME280;2967;51.488;6.618;2023-04-07T04:18:21;101132.56;;;10.23;100.00
5883;BME280;2967;51.488;6.618;2023-04-07T04:23:26;101138.69;;;10.24;100.00
5883;BME280;2967;51.488;6.618;2023-04-07T04:28:31;101133.66;;;10.19;100.00
5883;BME280;2967;51.488;6.618;2023-04-07T04:33:37;101148.69;;;10.19;100.00
5883;BME280;2967;51.488;6.618;2023-04-07T04:38:40;101150.97;;;10.25;100.00
5883;BME280;2967;51.488;6.618;2023-04-07T04:43:52;101152.28;;;10.18;100.00
5883;BME280;2967;51.488;6.618;2023-04-07T04:48:59;101153.97;;;10.19;100.00
5883;BME280;2967;51.488;6.618;2023-04-07T04:54:03;101162.84;;;10.18;100.00
5883;BME280;2967;51.488;6.618;2023-04-07T04:59:07;101169.22;;;10.14;100.00
5883;BME280;2967;51.488;6.618;2023-04-07T05:04:18;101165.22;;;10.07;100.00
5883;BME280;2967;51.488;6.618;2023-04-07T05:09:30;101164.69;;;10.00;100.00
5883;BME280;2967;51.488;6.618;2023-04-07T05:14:33;101183.28;;;9.99;100.00
5883;BME280;2967;51.488;6.618;2023-04-07T05:19:41;101183.72;;;10.07;100.00
5883;BME280;2967;51.488;6.618;2023-04-07T05:24:51;101185.72;;;10.03;100.00
5883;BME280;2967;51.488;6.618;2023-04-07T05:29:53;101191.56;;;10.08;100.00
5883;BME280;2967;51.488;6.618;2023-04-07T05:35:06;101191.41;;;10.11;100.00
5883;BME280;2967;51.488;6.618;2023-04-07T05:40:13;101192.84;;;10.17;100.00
5883;BME280;2967;51.488;6.618;2023-04-07T05:45:16;101195.09;;;10.09;100.00
5883;BME280;2967;51.488;6.618;2023-04-07T05:50:22;101207.63;;;10.05;100.00
5883;BME280;2967;51.488;6.618;2023-04-07T05:55:26;101212.72;;;10.08;100.00
5883;BME280;2967;51.488;6.618;2023-04-07T06:00:29;101218.44;;;10.16;100.00
5883;BME280;2967;51.488;6.618;2023-04-07T06:05:40;101175.94;;;9.88;100.00
5883;BME280;2967;51.488;6.618;2023-04-07T06:10:45;101221.16;;;10.15;100.00
5883;BME280;2967;51.488;6.618;2023-04-07T06:15:48;101224.25;;;10.07;100.00
5883;BME280;2967;51.488;6.618;2023-04-07T06:20:52;101237.97;;;10.14;100.00
5883;BME280;2967;51.488;6.618;2023-04-07T06:25:55;101235.81;;;10.20;100.00
5883;BME280;2967;51.488;6.618;2023-04-07T06:30:58;101232.16;;;10.23;100.00
5883;BME280;2967;51.488;6.618;2023-04-07T06:36:03;101234.28;;;10.32;100.00
5883;BME280;2967;51.488;6.618;2023-04-07T06:41:05;101234.28;;;10.32;100.00
5883;BME280;2967;51.488;6.618;2023-04-07T06:46:11;101242.66;;;10.40;100.00
5883;BME280;2967;51.488;6.618;2023-04-07T06:51:16;101255.59;;;10.44;100.00
5883;BME280;2967;51.488;6.618;2023-04-07T06:56:19;101261.22;;;10.38;100.00
5883;BME280;2967;51.488;6.618;2023-04-07T07:01:22;101265.50;;;10.41;100.00
5883;BME280;2967;51.488;6.618;2023-04-07T07:06:26;101226.81;;;10.09;100.00
5883;BME280;2967;51.488;6.618;2023-04-07T07:11:29;101269.25;;;10.37;100.00
5883;BME280;2967;51.488;6.618;2023-04-07T07:16:31;101272.81;;;10.36;100.00
5883;BME280;2967;51.488;6.618;2023-04-07T07:21:35;101247.78;;;10.12;100.00
5883;BME280;2967;51.488;6.618;2023-04-07T07:26:38;101276.34;;;10.36;100.00
5883;BME280;2967;51.488;6.618;2023-04-07T07:31:44;101274.19;;;10.43;100.00
5883;BME280;2967;51.488;6.618;2023-04-07T07:36:48;101281.94;;;10.45;100.00
5883;BME280;2967;51.488;6.618;2023-04-07T07:41:51;101281.16;;;10.59;100.00
5883;BME280;2967;51.488;6.618;2023-04-07T07:46:54;101290.72;;;10.61;100.00
5883;BME280;2967;51.488;6.618;2023-04-07T07:51:58;101291.41;;;10.65;100.00
5883;BME280;2967;51.488;6.618;2023-04-07T07:57:01;101294.34;;;10.45;100.00
5883;BME280;2967;51.488;6.618;2023-04-07T08:02:05;101280.00;;;10.49;100.00
5883;BME280;2967;51.488;6.618;2023-04-07T08:07:09;101306.81;;;10.43;100.00
5883;BME280;2967;51.488;6.618;2023-04-07T08:12:12;101309.50;;;10.57;100.00
5883;BME280;2967;51.488;6.618;2023-04-07T08:17:15;101312.72;;;10.62;100.00
5883;BME280;2967;51.488;6.618;2023-04-07T08:22:19;101316.25;;;10.62;100.00
5883;BME280;2967;51.488;6.618;2023-04-07T08:27:22;101319.59;;;10.66;100.00
5883;BME280;2967;51.488;6.618;2023-04-07T08:32:24;101319.28;;;10.86;100.00
5883;BME280;2967;51.488;6.618;2023-04-07T08:37:29;101337.22;;;10.81;100.00
5883;BME280;2967;51.488;6.618;2023-04-07T08:42:33;101345.16;;;10.81;100.00
5883;BME280;2967;51.488;6.618;2023-04-07T08:47:36;101344.66;;;10.74;100.00
5883;BME280;2967;51.488;6.618;2023-04-07T08:52:45;101311.28;;;10.56;100.00
5883;BME280;2967;51.488;6.618;2023-04-07T08:57:51;101307.75;;;10.57;100.00
5883;BME280;2967;51.488;6.618;2023-04-07T09:02:54;101356.78;;;10.94;100.00
5883;BME280;2967;51.488;6.618;2023-04-07T09:07:59;101364.59;;;10.95;100.00
5883;BME280;2967;51.488;6.618;2023-04-07T09:13:02;101364.59;;;10.95;100.00
5883;BME280;2967;51.488;6.618;2023-04-07T09:18:04;101364.44;;;10.98;100.00
5883;BME280;2967;51.488;6.618;2023-04-07T09:23:23;101369.03;;;11.10;100.00
5883;BME280;2967;51.488;6.618;2023-04-07T09:28:40;101367.06;;;11.14;100.00
5883;BME280;2967;51.488;6.618;2023-04-07T09:33:43;101371.72;;;11.24;100.00
5883;BME280;2967;51.488;6.618;2023-04-07T09:38:47;101368.31;;;11.22;100.00
5883;BME280;2967;51.488;6.618;2023-04-07T09:43:55;101366.75;;;11.34;100.00
5883;BME280;2967;51.488;6.618;2023-04-07T09:49:01;101374.25;;;11.41;100.00
5883;BME280;2967;51.488;6.618;2023-04-07T10:00:19;101388.91;;;11.62;100.00
5883;BME280;2967;51.488;6.618;2023-04-07T10:05:24;101393.25;;;11.63;100.00
5883;BME280;2967;51.488;6.618;2023-04-07T10:10:34;101388.63;;;11.37;100.00
5883;BME280;2967;51.488;6.618;2023-04-07T10:16:04;101384.81;;;11.27;100.00
5883;BME280;2967;51.488;6.618;2023-04-07T10:21:10;101397.09;;;11.28;100.00
5883;BME280;2967;51.488;6.618;2023-04-07T10:26:56;101396.25;;;11.28;100.00
5883;BME280;2967;51.488;6.618;2023-04-07T10:32:09;101381.75;;;11.19;100.00
5883;BME280;2967;51.488;6.618;2023-04-07T10:37:14;101412.56;;;11.20;100.00
5883;BME280;2967;51.488;6.618;2023-04-07T10:42:53;101410.47;;;11.41;100.00
5883;BME280;2967;51.488;6.618;2023-04-07T10:48:13;101416.09;;;11.50;100.00
5883;BME280;2967;51.488;6.618;2023-04-07T10:53:20;101413.88;;;11.58;100.00
5883;BME280;2967;51.488;6.618;2023-04-07T10:58:39;101308.38;;;10.76;100.00
5883;BME280;2967;51.488;6.618;2023-04-07T11:03:59;101443.03;;;11.43;100.00
5883;BME280;2967;51.488;6.618;2023-04-07T11:09:18;101439.28;;;11.31;100.00
5883;BME280;2967;51.488;6.618;2023-04-07T11:14:29;101424.13;;;11.19;100.00
5883;BME280;2967;51.488;6.618;2023-04-07T11:19:51;101444.25;;;11.22;100.00
5883;BME280;2967;51.488;6.618;2023-04-07T11:25:00;101438.69;;;11.26;100.00
5883;BME280;2967;51.488;6.618;2023-04-07T11:30:10;101278.25;;;10.63;100.00
5883;BME280;2967;51.488;6.618;2023-04-07T11:35:27;101342.06;;;11.04;100.00
5883;BME280;2967;51.488;6.618;2023-04-07T11:40:37;101435.41;;;11.52;100.00
5883;BME280;2967;51.488;6.618;2023-04-07T11:45:45;101445.81;;;11.55;100.00
5883;BME280;2967;51.488;6.618;2023-04-07T11:50:54;101451.50;;;11.49;100.00
5883;BME280;2967;51.488;6.618;2023-04-07T11:56:02;101352.78;;;10.71;100.00
5883;BME280;2967;51.488;6.618;2023-04-07T12:01:06;101462.50;;;11.42;100.00
5883;BME280;2967;51.488;6.618;2023-04-07T12:06:12;101463.97;;;11.32;100.00
5883;BME280;2967;51.488;6.618;2023-04-07T12:11:47;101467.91;;;11.40;100.00
5883;BME280;2967;51.488;6.618;2023-04-07T12:17:30;101476.69;;;11.41;100.00
5883;BME280;2967;51.488;6.618;2023-04-07T12:23:55;101475.75;;;11.42;100.00
5883;BME280;2967;51.488;6.618;2023-04-07T12:29:17;101448.94;;;11.32;100.00
5883;BME280;2967;51.488;6.618;2023-04-07T12:34:42;101464.50;;;11.38;100.00
5883;BME280;2967;51.488;6.618;2023-04-07T12:39:54;101489.25;;;11.53;100.00
5883;BME280;2967;51.488;6.618;2023-04-07T12:44:58;101465.84;;;11.45;100.00
5883;BME280;2967;51.488;6.618;2023-04-07T12:50:19;101488.38;;;11.68;100.00
5883;BME280;2967;51.488;6.618;2023-04-07T12:56:37;101497.09;;;11.54;100.00
5883;BME280;2967;51.488;6.618;2023-04-07T13:01:43;101318.97;;;10.61;100.00
5883;BME280;2967;51.488;6.618;2023-04-07T13:06:56;101426.56;;;11.22;100.00
5883;BME280;2967;51.488;6.618;2023-04-07T13:12:10;101495.09;;;11.59;100.00
5883;BME280;2967;51.488;6.618;2023-04-07T13:17:18;101497.47;;;11.48;100.00
5883;BME280;2967;51.488;6.618;2023-04-07T13:22:28;101453.41;;;11.16;100.00
5883;BME280;2967;51.488;6.618;2023-04-07T13:27:57;101429.31;;;10.90;100.00
5883;BME280;2967;51.488;6.618;2023-04-07T13:33:01;101509.88;;;11.17;100.00
5883;BME280;2967;51.488;6.618;2023-04-07T13:38:30;101508.41;;;10.96;100.00
5883;BME280;2967;51.488;6.618;2023-04-07T13:43:58;101512.34;;;11.04;100.00
5883;BME280;2967;51.488;6.618;2023-04-07T13:49:02;101466.47;;;10.73;100.00
5883;BME280;2967;51.488;6.618;2023-04-07T13:54:08;101502.69;;;10.88;100.00
5883;BME280;2967;51.488;6.618;2023-04-07T13:59:22;101513.19;;;10.89;100.00
5883;BME280;2967;51.488;6.618;2023-04-07T14:04:32;101525.81;;;11.00;100.00
5883;BME280;2967;51.488;6.618;2023-04-07T14:09:37;101515.97;;;10.86;100.00
5883;BME280;2967;51.488;6.618;2023-04-07T14:14:45;101449.97;;;10.52;100.00
5883;BME280;2967;51.488;6.618;2023-04-07T14:19:54;101529.78;;;11.08;100.00
5883;BME280;2967;51.488;6.618;2023-04-07T14:24:57;101536.41;;;11.15;100.00
5883;BME280;2967;51.488;6.618;2023-04-07T14:30:03;101537.03;;;11.20;100.00
5883;BME280;2967;51.488;6.618;2023-04-07T14:35:08;101531.81;;;11.19;100.00
5883;BME280;2967;51.488;6.618;2023-04-07T14:40:12;101506.34;;;11.01;100.00
5883;BME280;2967;51.488;6.618;2023-04-07T14:45:21;101531.56;;;11.23;100.00
5883;BME280;2967;51.488;6.618;2023-04-07T14:50:27;101529.94;;;11.21;100.00
5883;BME280;2967;51.488;6.618;2023-04-07T14:55:32;101523.81;;;11.20;100.00
5883;BME280;2967;51.488;6.618;2023-04-07T15:00:42;101542.25;;;11.37;100.00
5883;BME280;2967;51.488;6.618;2023-04-07T15:05:49;101538.13;;;11.32;100.00
5883;BME280;2967;51.488;6.618;2023-04-07T15:10:59;101544.47;;;11.29;100.00
5883;BME280;2967;51.488;6.618;2023-04-07T15:16:12;101525.06;;;11.13;100.00
5883;BME280;2967;51.488;6.618;2023-04-07T15:21:22;101514.41;;;10.99;100.00
5883;BME280;2967;51.488;6.618;2023-04-07T15:26:32;101551.47;;;11.15;100.00
5883;BME280;2967;51.488;6.618;2023-04-07T15:31:41;101554.38;;;11.26;100.00
5883;BME280;2967;51.488;6.618;2023-04-07T15:36:53;101559.94;;;11.21;100.00
5883;BME280;2967;51.488;6.618;2023-04-07T15:42:14;101469.69;;;10.62;100.00
5883;BME280;2967;51.488;6.618;2023-04-07T15:47:20;101249.56;;;9.31;100.00
5883;BME280;2967;51.488;6.618;2023-04-07T15:52:29;101462.78;;;10.60;100.00
5883;BME280;2967;51.488;6.618;2023-04-07T15:57:37;101528.47;;;11.00;100.00
5883;BME280;2967;51.488;6.618;2023-04-07T16:02:47;101564.59;;;11.16;100.00
5883;BME280;2967;51.488;6.618;2023-04-07T16:07:56;101568.38;;;11.12;100.00
5883;BME280;2967;51.488;6.618;2023-04-07T16:13:13;101579.97;;;11.10;100.00
5883;BME280;2967;51.488;6.618;2023-04-07T16:18:51;101582.28;;;11.00;100.00
5883;BME280;2967;51.488;6.618;2023-04-07T16:23:57;101498.53;;;10.35;100.00
5883;BME280;2967;51.488;6.618;2023-04-07T16:29:11;101584.41;;;10.94;100.00
5883;BME280;2967;51.488;6.618;2023-04-07T16:34:34;101596.53;;;10.98;100.00
5883;BME280;2967;51.488;6.618;2023-04-07T16:39:38;101566.09;;;10.74;100.00
5883;BME280;2967;51.488;6.618;2023-04-07T16:44:43;101600.38;;;10.92;100.00
5883;BME280;2967;51.488;6.618;2023-04-07T16:49:52;101599.44;;;10.93;100.00
5883;BME280;2967;51.488;6.618;2023-04-07T16:55:06;101590.09;;;10.86;100.00
5883;BME280;2967;51.488;6.618;2023-04-07T17:00:24;101602.69;;;10.98;100.00
5883;BME280;2967;51.488;6.618;2023-04-07T17:05:30;101618.59;;;10.98;100.00
5883;BME280;2967;51.488;6.618;2023-04-07T17:10:37;101623.63;;;11.03;100.00
5883;BME280;2967;51.488;6.618;2023-04-07T17:15:46;101591.91;;;10.86;100.00
5883;BME280;2967;51.488;6.618;2023-04-07T17:26:52;101640.53;;;10.83;100.00
5883;BME280;2967;51.488;6.618;2023-04-07T17:32:04;101643.66;;;10.91;100.00
5883;BME280;2967;51.488;6.618;2023-04-07T17:37:11;101645.38;;;10.75;100.00
5883;BME280;2967;51.488;6.618;2023-04-07T17:42:24;101654.13;;;10.77;100.00
5883;BME280;2967;51.488;6.618;2023-04-07T17:47:33;101662.50;;;10.85;100.00
5883;BME280;2967;51.488;6.618;2023-04-07T17:52:40;101667.41;;;10.93;100.00
5883;BME280;2967;51.488;6.618;2023-04-07T17:57:49;101635.44;;;10.63;100.00
5883;BME280;2967;51.488;6.618;2023-04-07T18:03:04;101675.34;;;10.93;100.00
5883;BME280;2967;51.488;6.618;2023-04-07T18:08:15;101566.69;;;10.30;100.00
5883;BME280;2967;51.488;6.618;2023-04-07T18:13:42;101689.75;;;10.87;100.00
5883;BME280;2967;51.488;6.618;2023-04-07T18:19:04;101688.53;;;10.77;100.00
5883;BME280;2967;51.488;6.618;2023-04-07T18:24:32;101590.25;;;10.17;100.00
5883;BME280;2967;51.488;6.618;2023-04-07T18:30:07;101702.13;;;10.70;100.00
5883;BME280;2967;51.488;6.618;2023-04-07T18:35:35;101690.47;;;10.57;100.00
5883;BME280;2967;51.488;6.618;2023-04-07T18:41:05;101710.28;;;10.65;100.00
5883;BME280;2967;51.488;6.618;2023-04-07T18:46:32;101721.09;;;10.61;100.00
5883;BME280;2967;51.488;6.618;2023-04-07T18:52:01;101732.78;;;10.57;100.00
5883;BME280;2967;51.488;6.618;2023-04-07T18:57:29;101697.22;;;10.29;100.00
5883;BME280;2967;51.488;6.618;2023-04-07T19:03:05;101744.69;;;10.48;100.00
5883;BME280;2967;51.488;6.618;2023-04-07T19:08:30;101755.41;;;10.45;100.00
5883;BME280;2967;51.488;6.618;2023-04-07T19:14:03;101738.25;;;10.36;100.00
5883;BME280;2967;51.488;6.618;2023-04-07T19:19:44;101744.59;;;10.33;100.00
5883;BME280;2967;51.488;6.618;2023-04-07T19:25:16;101776.44;;;10.48;100.00
5883;BME280;2967;51.488;6.618;2023-04-07T19:30:40;101790.59;;;10.48;100.00
5883;BME280;2967;51.488;6.618;2023-04-07T19:36:12;101782.44;;;10.34;100.00
5883;BME280;2967;51.488;6.618;2023-04-07T19:41:37;101751.59;;;10.16;100.00
5883;BME280;2967;51.488;6.618;2023-04-07T19:47:05;101776.38;;;10.32;100.00
5883;BME280;2967;51.488;6.618;2023-04-07T19:52:32;101791.16;;;10.36;100.00
5883;BME280;2967;51.488;6.618;2023-04-07T19:58:01;101789.00;;;10.43;100.00
5883;BME280;2967;51.488;6.618;2023-04-07T20:03:28;101787.47;;;10.40;100.00
5883;BME280;2967;51.488;6.618;2023-04-07T20:14:45;101793.97;;;10.33;100.00
5883;BME280;2967;51.488;6.618;2023-04-07T20:20:19;101802.94;;;10.47;100.00
5883;BME280;2967;51.488;6.618;2023-04-07T20:25:53;101808.47;;;10.43;100.00
5883;BME280;2967;51.488;6.618;2023-04-07T20:31:24;101816.06;;;10.32;100.00
5883;BME280;2967;51.488;6.618;2023-04-07T20:37:02;101813.25;;;10.35;100.00
5883;BME280;2967;51.488;6.618;2023-04-07T20:42:40;101819.19;;;10.40;100.00
5883;BME280;2967;51.488;6.618;2023-04-07T20:48:18;101825.41;;;10.39;100.00
5883;BME280;2967;51.488;6.618;2023-04-07T20:53:52;101829.56;;;10.44;100.00
5883;BME280;2967;51.488;6.618;2023-04-07T20:59:27;101834.91;;;10.43;100.00
5883;BME280;2967;51.488;6.618;2023-04-07T21:04:31;101794.31;;;10.25;100.00
5883;BME280;2967;51.488;6.618;2023-04-07T21:09:51;101780.41;;;10.22;100.00
5883;BME280;2967;51.488;6.618;2023-04-07T21:14:59;101839.25;;;10.43;100.00
5883;BME280;2967;51.488;6.618;2023-04-07T21:20:16;101842.50;;;10.32;100.00
5883;BME280;2967;51.488;6.618;2023-04-07T21:25:23;101835.56;;;10.29;100.00
5883;BME280;2967;51.488;6.618;2023-04-07T21:30:40;101835.66;;;10.28;100.00
5883;BME280;2967;51.488;6.618;2023-04-07T21:35:48;101841.34;;;10.19;100.00
5883;BME280;2967;51.488;6.618;2023-04-07T21:40:56;101777.28;;;9.75;100.00
5883;BME280;2967;51.488;6.618;2023-04-07T21:46:13;101849.28;;;10.19;100.00
5883;BME280;2967;51.488;6.618;2023-04-07T21:51:29;101797.81;;;9.89;100.00
5883;BME280;2967;51.488;6.618;2023-04-07T21:56:35;101855.34;;;10.21;100.00
5883;BME280;2967;51.488;6.618;2023-04-07T22:01:51;101848.16;;;10.24;100.00
5883;BME280;2967;51.488;6.618;2023-04-07T22:07:02;101822.28;;;10.12;100.00
5883;BME280;2967;51.488;6.618;2023-04-07T22:12:12;101848.94;;;10.26;100.00
5883;BME280;2967;51.488;6.618;2023-04-07T22:17:21;101807.63;;;10.05;100.00
5883;BME280;2967;51.488;6.618;2023-04-07T22:22:26;101837.41;;;10.27;100.00
5883;BME280;2967;51.488;6.618;2023-04-07T22:27:34;101832.50;;;10.20;100.00
5883;BME280;2967;51.488;6.618;2023-04-07T22:32:42;101861.06;;;10.30;100.00
5883;BME280;2967;51.488;6.618;2023-04-07T22:37:50;101865.50;;;10.30;100.00
5883;BME280;2967;51.488;6.618;2023-04-07T22:43:00;101845.94;;;10.15;100.00
5883;BME280;2967;51.488;6.618;2023-04-07T22:48:10;101863.22;;;10.22;100.00
5883;BME280;2967;51.488;6.618;2023-04-07T22:53:15;101862.56;;;10.17;100.00
5883;BME280;2967;51.488;6.618;2023-04-07T22:58:21;101837.47;;;10.07;100.00
5883;BME280;2967;51.488;6.618;2023-04-07T23:03:27;101878.06;;;10.25;100.00
5883;BME280;2967;51.488;6.618;2023-04-07T23:08:33;101877.28;;;10.23;100.00
5883;BME280;2967;51.488;6.618;2023-04-07T23:13:40;101838.94;;;9.94;100.00
5883;BME280;2967;51.488;6.618;2023-04-07T23:18:46;101876.78;;;10.15;100.00
5883;BME280;2967;51.488;6.618;2023-04-07T23:23:54;101863.91;;;10.07;100.00
5883;BME280;2967;51.488;6.618;2023-04-07T23:28:59;101890.16;;;10.12;100.00
5883;BME280;2967;51.488;6.618;2023-04-07T23:34:06;101893.22;;;10.03;100.00
5883;BME280;2967;51.488;6.618;2023-04-07T23:39:35;101894.78;;;10.07;100.00
5883;BME280;2967;51.488;6.618;2023-04-07T23:44:44;101900.06;;;10.07;100.00
5883;BME280;2967;51.488;6.618;2023-04-07T23:49:51;101898.22;;;10.09;100.00
5883;BME280;2967;51.488;6.618;2023-04-07T23:54:56;101892.00;;;10.10;100.00
